SAWG/RGL METAR and TAF weather

Enter ICAO airport designator
Station Type Date Time Source
SAWG METAR 2024/06/14 02:00 UTC NOAA

SAWG 140200Z 26021KT CAVOK 02/M02 Q0982


Station Type Date Time Source
SAWG Decoded METAR 2024/06/14 02:00 UTC NOAA

Rio Gallegos Aerodrome, Argentina (SAWG) 51-37S 069-17W 19M
Jun 13, 2024 - 10:00 PM EDT / 2024.06.14 0200 UTC
Wind: from the W (260 degrees) at 24 MPH (21 KT):0
Visibility: greater than 7 mile(s):0
Temperature: 35 F (2 C)
Windchill: 23 F (-5 C):1
Dew Point: 28 F (-2 C)
Relative Humidity: 74%
Pressure (altimeter): 29.00 in. Hg (0982 hPa)
ob: SAWG 140200Z 26021KT CAVOK 02/M02 Q0982
cycle: 2

Station Type Date Time Source
SAWG TAF 2024/06/14 00:00 UTC NOAA